Time;durP1;ratioP1;P1;durP2;ratioP2;P2;SDS_P1;SDS_P2;PMS_P1;PMS_P2;Temp;Humidity;BMP_temperature;BMP_pressure;BME280_temperature;BME280_humidity;BME280_pressure;Samples;Min_cycle;Max_cycle;Signal;HPM_P1;HPM_P2
2023/04/19 00:01:00;;;;;;;5.10;4.60;;;;;;;10.16;54.55;102713.50;4997462;28;20236;-79
2023/04/19 00:03:27;;;;;;;5.07;4.67;;;;;;;10.19;54.24;102730.09;4997304;28;20307;-80
2023/04/19 00:05:53;;;;;;;4.90;4.40;;;;;;;10.16;54.07;102735.25;4997301;28;20202;-79
2023/04/19 00:08:20;;;;;;;5.20;4.80;;;;;;;10.19;54.40;102747.47;4997165;28;20686;-81
2023/04/19 00:10:47;;;;;;;5.20;4.70;;;;;;;10.16;54.41;102750.91;4997474;28;20220;-80
2023/04/19 00:13:14;;;;;;;5.90;5.27;;;;;;;10.20;54.10;102744.88;4996698;28;20713;-82
2023/04/19 00:15:40;;;;;;;5.23;4.83;;;;;;;10.14;54.08;102748.25;4997182;28;20214;-82
2023/04/19 00:18:07;;;;;;;5.67;4.77;;;;;;;10.14;53.88;102753.47;4996996;28;20270;-79
2023/04/19 00:20:33;;;;;;;6.53;4.60;;;;;;;10.11;53.26;102749.94;4997004;28;20208;-79
2023/04/19 00:22:59;;;;;;;4.93;4.53;;;;;;;10.09;52.02;102747.28;4997003;28;20230;-82
2023/04/19 00:25:27;;;;;;;7.20;5.10;;;;;;;10.06;51.13;102798.53;4997123;28;20265;-81
2023/04/19 00:27:54;;;;;;;3.73;3.43;;;;;;;10.03;50.37;102830.69;4996692;28;20615;-80
2023/04/19 00:30:21;;;;;;;6.87;3.90;;;;;;;10.05;50.24;102860.28;4996722;28;20238;-79
2023/04/19 00:32:47;;;;;;;4.23;3.27;;;;;;;10.05;50.19;102886.38;4996826;28;20270;-80
2023/04/19 00:35:14;;;;;;;4.43;4.10;;;;;;;9.97;50.31;102914.03;4996736;28;20258;-78
2023/04/19 00:37:40;;;;;;;3.83;3.50;;;;;;;9.96;50.80;102925.31;4996851;28;20211;-79
2023/04/19 00:40:08;;;;;;;4.63;4.23;;;;;;;9.95;49.77;102913.13;4996818;28;20230;-78
2023/04/19 00:42:34;;;;;;;3.90;3.60;;;;;;;9.87;49.35;102923.38;4996384;28;20731;-79
2023/04/19 00:45:02;;;;;;;4.00;3.70;;;;;;;9.82;49.53;102948.44;4996738;28;20266;-81
2023/04/19 00:47:28;;;;;;;3.93;3.53;;;;;;;9.89;49.44;102952.06;4996479;28;20237;-82
2023/04/19 00:49:55;;;;;;;3.40;3.03;;;;;;;9.85;49.76;102972.00;4996678;28;20206;-82
2023/04/19 00:52:22;;;;;;;3.73;3.43;;;;;;;9.84;49.37;102972.84;4996584;28;20242;-80
2023/04/19 00:54:49;;;;;;;3.57;3.27;;;;;;;9.87;49.32;102979.84;4996962;28;20615;-81
2023/04/19 00:57:17;;;;;;;3.37;3.17;;;;;;;9.77;49.05;102980.47;4996969;28;20267;-80
2023/04/19 00:59:44;;;;;;;3.43;3.23;;;;;;;9.76;49.39;102989.16;4996284;28;20552;-80
2023/04/19 01:02:11;;;;;;;5.53;3.63;;;;;;;9.61;49.50;102998.31;4996385;28;20236;-81
2023/04/19 01:04:38;;;;;;;9.80;3.17;;;;;;;9.47;50.09;102987.53;4996771;28;20214;-81
2023/04/19 01:07:04;;;;;;;4.10;3.13;;;;;;;9.40;50.28;102966.50;4995723;28;20212;-80
2023/04/19 01:09:31;;;;;;;4.27;2.90;;;;;;;9.34;50.53;102972.44;4996204;28;20356;-81
2023/04/19 01:11:57;;;;;;;3.77;2.80;;;;;;;9.32;50.14;102950.66;4997093;28;20231;-81
2023/04/19 01:14:23;;;;;;;3.03;2.83;;;;;;;9.16;50.62;102959.78;4996715;28;20674;-82
2023/04/19 01:16:51;;;;;;;3.30;3.03;;;;;;;9.11;51.08;102943.13;4996638;28;20263;-81
2023/04/19 01:19:20;;;;;;;3.37;3.07;;;;;;;9.06;51.16;102929.09;4996569;28;20572;-81
2023/04/19 01:21:46;;;;;;;3.00;2.73;;;;;;;9.04;51.37;102903.00;4996723;28;20684;-81
2023/04/19 01:24:14;;;;;;;3.33;3.03;;;;;;;8.95;51.76;102900.13;4996891;28;20203;-80
2023/04/19 01:26:40;;;;;;;3.10;2.87;;;;;;;8.92;52.10;102889.66;4997400;28;20210;-80
2023/04/19 01:29:06;;;;;;;3.17;2.87;;;;;;;8.89;52.42;102866.97;4996962;28;20217;-81
2023/04/19 01:31:33;;;;;;;3.50;3.20;;;;;;;8.84;52.77;102852.06;4996495;28;20778;-81
2023/04/19 01:33:59;;;;;;;3.10;2.80;;;;;;;8.74;53.02;102837.91;4996565;28;20206;-80
2023/04/19 01:36:26;;;;;;;3.57;3.17;;;;;;;8.70;53.18;102810.94;4996691;28;20281;-82
2023/04/19 01:38:53;;;;;;;3.80;3.20;;;;;;;8.63;53.58;102809.00;4996463;28;20209;-80
2023/04/19 01:41:21;;;;;;;3.37;3.00;;;;;;;8.62;53.26;102790.72;4996569;28;20313;-80
2023/04/19 01:43:48;;;;;;;4.00;3.70;;;;;;;8.50;53.79;102791.25;4996865;28;20294;-81
2023/04/19 01:46:14;;;;;;;3.53;3.33;;;;;;;8.43;53.80;102777.22;4996456;28;20214;-81
2023/04/19 01:48:40;;;;;;;3.63;3.10;;;;;;;8.41;53.54;102764.97;4996645;28;20652;-80
2023/04/19 01:51:07;;;;;;;3.90;3.27;;;;;;;8.31;54.59;102771.63;4996519;28;20222;-80
2023/04/19 01:53:33;;;;;;;3.90;3.40;;;;;;;8.30;54.34;102755.13;4996594;28;20203;-80
2023/04/19 01:55:59;;;;;;;5.20;3.70;;;;;;;8.24;54.10;102741.94;4996621;28;20269;-80
2023/04/19 01:58:27;;;;;;;4.03;2.93;;;;;;;8.15;54.68;102736.50;4996405;28;20280;-80
2023/04/19 02:00:56;;;;;;;3.97;3.33;;;;;;;8.10;54.77;102725.94;4996471;28;20241;-80
2023/04/19 02:03:22;;;;;;;3.10;2.90;;;;;;;8.05;54.75;102706.75;4995995;28;20283;-82
2023/04/19 02:05:49;;;;;;;3.70;3.30;;;;;;;8.01;54.94;102699.69;4996483;28;20213;-81
2023/04/19 02:08:15;;;;;;;3.83;3.07;;;;;;;7.95;55.89;102681.31;4995962;28;20209;-81
2023/04/19 02:10:41;;;;;;;3.97;3.50;;;;;;;7.87;55.87;102675.91;4996428;28;20593;-81
2023/04/19 02:13:08;;;;;;;3.60;3.17;;;;;;;7.86;56.52;102647.25;4996384;28;20227;-80
2023/04/19 02:15:36;;;;;;;3.60;2.90;;;;;;;7.78;56.67;102633.16;4997133;28;20232;-81
2023/04/19 02:18:05;;;;;;;3.53;3.23;;;;;;;7.79;56.81;102627.09;4995736;28;20205;-80
2023/04/19 02:20:31;;;;;;;3.70;3.40;;;;;;;7.76;56.75;102612.31;4995288;28;20212;-81
2023/04/19 02:22:57;;;;;;;3.20;2.83;;;;;;;7.75;56.93;102605.38;4996677;28;20297;-82
2023/04/19 02:25:24;;;;;;;3.40;3.10;;;;;;;7.67;57.53;102607.75;4995993;28;20240;-82
2023/04/19 02:27:50;;;;;;;4.10;3.20;;;;;;;7.68;57.57;102593.03;4995707;28;20207;-80
2023/04/19 02:30:17;;;;;;;4.27;3.07;;;;;;;7.62;57.05;102585.94;4995614;28;20207;-82
2023/04/19 02:32:44;;;;;;;3.53;3.20;;;;;;;7.63;57.71;102581.59;4995509;28;20229;-81
2023/04/19 02:35:12;;;;;;;3.40;3.10;;;;;;;7.61;57.33;102573.78;4995910;28;20213;-81
2023/04/19 02:37:38;;;;;;;4.20;3.43;;;;;;;7.61;58.23;102573.78;4995690;28;20215;-80
2023/04/19 02:40:06;;;;;;;3.70;3.27;;;;;;;7.53;58.60;102568.38;4995476;28;20704;-81
2023/04/19 02:42:33;;;;;;;3.53;3.23;;;;;;;7.58;57.90;102562.44;4995347;28;20314;-80
2023/04/19 02:44:59;;;;;;;4.00;2.97;;;;;;;7.53;57.83;102559.69;4995711;28;20211;-81
2023/04/19 02:47:25;;;;;;;3.20;2.87;;;;;;;7.51;57.99;102562.25;4995438;28;20210;-81
2023/04/19 02:49:53;;;;;;;3.40;3.10;;;;;;;7.49;58.04;102555.22;4995400;28;20207;-81
2023/04/19 02:52:19;;;;;;;4.43;3.53;;;;;;;7.41;58.69;102552.41;4994848;28;20773;-81
2023/04/19 02:54:45;;;;;;;4.03;3.27;;;;;;;7.31;58.65;102548.72;4995391;28;20268;-81
2023/04/19 02:57:12;;;;;;;5.53;3.30;;;;;;;7.29;59.41;102533.88;4995304;28;20206;-82
2023/04/19 02:59:39;;;;;;;3.30;2.77;;;;;;;7.24;59.61;102536.38;4994871;28;20210;-81
2023/04/19 03:02:06;;;;;;;3.90;3.60;;;;;;;7.22;58.79;102519.84;4994903;28;20281;-81
2023/04/19 03:04:33;;;;;;;3.17;2.93;;;;;;;7.19;59.60;102521.47;4995794;28;20227;-81
2023/04/19 03:07:00;;;;;;;3.47;3.17;;;;;;;7.17;58.84;102513.63;4995455;28;20212;-80
2023/04/19 03:09:27;;;;;;;2.73;2.53;;;;;;;7.14;59.75;102513.56;4994619;28;20204;-82
2023/04/19 03:11:53;;;;;;;3.60;3.30;;;;;;;7.09;59.40;102513.41;4993847;28;20282;-81
2023/04/19 03:14:20;;;;;;;5.03;3.30;;;;;;;7.06;59.53;102505.56;4994045;28;20205;-80
2023/04/19 03:16:46;;;;;;;3.10;2.80;;;;;;;7.00;60.51;102494.09;4993953;28;20265;-80
2023/04/19 03:19:12;;;;;;;3.90;3.33;;;;;;;6.94;60.73;102489.63;4994318;28;20283;-81
2023/04/19 03:21:38;;;;;;;4.33;3.40;;;;;;;6.93;60.45;102474.88;4994570;28;20256;-80
2023/04/19 03:24:07;;;;;;;4.27;3.30;;;;;;;6.88;61.04;102464.38;4993847;28;20229;-80
2023/04/19 03:26:33;;;;;;;3.33;3.03;;;;;;;6.80;61.38;102449.38;4994063;28;20261;-80
2023/04/19 03:29:00;;;;;;;3.40;3.10;;;;;;;6.78;61.73;102430.28;4994078;28;20211;-80
2023/04/19 03:31:26;;;;;;;3.40;3.17;;;;;;;6.74;61.81;102418.97;4993113;28;20653;-81
2023/04/19 03:33:52;;;;;;;5.73;3.00;;;;;;;6.67;61.67;102417.88;4993850;28;20205;-80
2023/04/19 03:36:19;;;;;;;3.63;3.30;;;;;;;6.63;62.88;102413.44;4994074;28;20275;-80
2023/04/19 03:38:45;;;;;;;4.13;3.80;;;;;;;6.62;62.70;102403.91;4993849;28;20209;-80
2023/04/19 03:41:20;;;;;;;3.37;3.00;;;;;;;6.58;62.61;102394.28;4993998;28;20213;-81
2023/04/19 03:43:46;;;;;;;3.60;3.30;;;;;;;6.46;63.40;102384.44;4994467;28;20760;-80
2023/04/19 03:46:12;;;;;;;4.03;3.63;;;;;;;6.45;63.70;102366.22;4994399;28;20208;-82
2023/04/19 03:48:38;;;;;;;4.83;3.77;;;;;;;6.25;64.52;102350.06;4994185;28;20257;-80
2023/04/19 03:51:05;;;;;;;3.67;3.33;;;;;;;6.22;64.66;102334.41;4994394;28;20765;-82
2023/04/19 03:53:31;;;;;;;3.77;3.23;;;;;;;6.19;64.57;102321.38;4994262;28;20209;-81
2023/04/19 03:55:58;;;;;;;3.47;3.17;;;;;;;6.18;64.67;102307.50;4993870;28;20204;-81
2023/04/19 03:58:25;;;;;;;4.33;3.13;;;;;;;6.15;64.70;102295.34;4993589;28;20211;-81
2023/04/19 04:00:52;;;;;;;4.00;3.70;;;;;;;6.07;65.18;102277.81;4993949;28;20263;-81
2023/04/19 04:03:18;;;;;;;4.23;3.47;;;;;;;6.03;65.29;102274.25;4993724;28;20231;-80
2023/04/19 04:05:45;;;;;;;3.73;3.23;;;;;;;5.83;66.80;102262.34;4994190;28;20619;-81
2023/04/19 04:08:12;;;;;;;5.10;3.53;;;;;;;5.87;67.07;102239.19;4994129;28;20216;-81
2023/04/19 04:10:39;;;;;;;3.37;3.07;;;;;;;5.92;66.74;102216.00;4993883;28;20631;-80
2023/04/19 04:13:05;;;;;;;4.37;2.90;;;;;;;5.93;66.84;102212.56;4994241;28;20220;-80
2023/04/19 04:15:32;;;;;;;3.67;2.67;;;;;;;5.93;65.81;102210.84;4994369;28;20205;-80
2023/04/19 04:17:59;;;;;;;3.87;3.20;;;;;;;5.94;65.66;102211.72;4993993;28;20744;-82
2023/04/19 04:20:25;;;;;;;3.60;3.30;;;;;;;5.97;66.33;102210.13;4993916;28;20208;-80
2023/04/19 04:22:51;;;;;;;3.50;3.07;;;;;;;5.97;66.00;102209.28;4993379;28;20648;-80
2023/04/19 04:25:18;;;;;;;4.20;3.80;;;;;;;5.93;66.76;102210.00;4994412;28;20213;-80
2023/04/19 04:27:45;;;;;;;3.43;3.07;;;;;;;5.90;66.75;102205.56;4993797;28;20274;-79
2023/04/19 04:30:12;;;;;;;3.30;3.00;;;;;;;5.90;67.05;102195.22;4993539;28;20200;-80
2023/04/19 04:32:39;;;;;;;3.77;3.37;;;;;;;5.97;66.39;102201.50;4989004;28;20224;-81
2023/04/19 04:35:08;;;;;;;3.40;3.10;;;;;;;5.90;66.86;102202.97;4993452;28;20205;-81
2023/04/19 04:37:35;;;;;;;3.23;2.87;;;;;;;5.87;67.67;102189.94;4993806;28;20586;-79
2023/04/19 04:40:03;;;;;;;3.50;3.20;;;;;;;5.84;68.09;102188.97;4993773;28;20217;-80
2023/04/19 04:42:30;;;;;;;3.40;3.07;;;;;;;5.90;68.11;102171.88;4995610;28;20598;-80
2023/04/19 04:44:56;;;;;;;3.63;3.33;;;;;;;5.89;67.45;102170.13;4997815;28;20243;-83
2023/04/19 04:47:23;;;;;;;4.27;3.37;;;;;;;5.93;68.09;102168.50;4996866;28;20263;-80
2023/04/19 04:49:51;;;;;;;3.43;3.03;;;;;;;5.95;67.46;102159.09;4996954;28;20258;-80
2023/04/19 04:52:17;;;;;;;3.43;3.13;;;;;;;5.93;67.97;102165.94;5026013;23;20223;-83
2023/04/19 04:54:44;;;;;;;3.63;2.57;;;;;;;5.92;68.40;102159.84;5017542;28;20207;-82
2023/04/19 04:57:10;;;;;;;3.83;3.50;;;;;;;5.96;67.87;102155.66;5017051;28;20594;-83
2023/04/19 04:59:36;;;;;;;3.30;3.00;;;;;;;6.00;68.00;102154.03;5017324;28;20212;-82
2023/04/19 05:02:03;;;;;;;3.63;3.33;;;;;;;6.10;67.74;102163.81;5017933;28;20230;-82
2023/04/19 05:04:29;;;;;;;3.87;3.00;;;;;;;6.07;67.80;102162.03;5036901;28;20228;-82
2023/04/19 05:06:56;;;;;;;3.27;2.93;;;;;;;6.04;67.71;102161.94;5036390;28;20203;-82
2023/04/19 05:09:23;;;;;;;5.77;3.20;;;;;;;6.14;67.14;102168.25;5036429;28;20669;-82
2023/04/19 05:11:49;;;;;;;2.67;2.47;;;;;;;6.14;67.94;102165.66;5037418;28;20233;-82
2023/04/19 05:14:15;;;;;;;4.33;2.80;;;;;;;6.15;67.25;102173.47;5036889;28;20598;-82
2023/04/19 05:16:42;;;;;;;3.20;2.90;;;;;;;6.17;67.12;102178.72;5037365;28;20270;-82
2023/04/19 05:19:08;;;;;;;3.40;3.13;;;;;;;6.20;67.44;102185.69;5036684;28;20207;-83
2023/04/19 05:21:34;;;;;;;3.17;2.87;;;;;;;6.18;67.18;102188.22;5038153;28;20270;-82
2023/04/19 05:24:03;;;;;;;3.03;2.37;;;;;;;6.25;67.56;102189.31;5037858;28;20292;-83
2023/04/19 05:26:29;;;;;;;5.10;2.50;;;;;;;6.29;67.44;102192.00;5038662;28;20211;-82
2023/04/19 05:28:56;;;;;;;3.80;2.97;;;;;;;6.35;67.43;102194.75;5039115;28;20203;-82
2023/04/19 05:31:22;;;;;;;2.93;2.60;;;;;;;6.46;66.43;102196.75;5039323;28;20218;-84
2023/04/19 05:33:49;;;;;;;3.10;2.50;;;;;;;6.49;66.07;102215.00;5016242;28;20211;-84
2023/04/19 05:36:15;;;;;;;2.87;2.47;;;;;;;6.48;66.36;102231.41;5010677;28;20430;-82
2023/04/19 05:38:41;;;;;;;2.87;2.67;;;;;;;6.51;65.88;102241.88;5008821;28;20269;-82
2023/04/19 05:41:10;;;;;;;5.20;2.60;;;;;;;6.53;66.21;102248.84;5009890;28;20239;-81
2023/04/19 05:43:36;;;;;;;2.93;2.63;;;;;;;6.55;65.59;102243.72;5008111;28;20226;-84
2023/04/19 05:46:03;;;;;;;3.80;2.60;;;;;;;6.61;65.28;102245.59;5008099;28;20200;-83
2023/04/19 05:48:29;;;;;;;2.60;2.40;;;;;;;6.63;64.84;102254.28;5009725;28;20266;-83
2023/04/19 05:50:56;;;;;;;2.87;2.60;;;;;;;6.65;64.54;102271.66;5002546;28;20211;-83
2023/04/19 05:53:23;;;;;;;5.30;2.70;;;;;;;6.66;65.03;102280.31;4999450;28;20247;-83
2023/04/19 05:55:50;;;;;;;6.27;2.57;;;;;;;6.66;65.41;102278.63;5000661;28;20633;-82
2023/04/19 05:58:18;;;;;;;4.23;2.50;;;;;;;6.69;64.11;102276.09;5008175;28;20203;-81
2023/04/19 06:00:45;;;;;;;2.87;2.50;;;;;;;6.73;65.25;102290.91;5009658;28;20705;-83
2023/04/19 06:03:11;;;;;;;3.33;2.57;;;;;;;6.79;65.33;102290.19;5029142;28;20231;-82
2023/04/19 06:05:39;;;;;;;4.30;2.10;;;;;;;6.79;65.12;102286.72;5036520;28;20214;-81
2023/04/19 06:08:06;;;;;;;2.73;1.90;;;;;;;6.87;65.35;102278.28;5033660;28;20215;-81
2023/04/19 06:10:32;;;;;;;4.03;2.57;;;;;;;6.93;64.01;102293.13;5034184;28;20184;-80
2023/04/19 06:12:58;;;;;;;2.60;1.97;;;;;;;6.98;64.00;102294.16;5021232;28;20240;-80
2023/04/19 06:15:26;;;;;;;2.53;2.30;;;;;;;7.04;64.06;102309.88;5014618;28;20254;-81
2023/04/19 06:17:52;;;;;;;2.40;2.20;;;;;;;7.06;63.61;102322.91;5011564;28;20227;-80
2023/04/19 06:20:18;;;;;;;2.70;1.77;;;;;;;7.06;64.05;102339.38;5007129;28;20671;-83
2023/04/19 06:22:45;;;;;;;3.60;2.53;;;;;;;7.13;64.27;102332.59;5004775;28;20223;-80
2023/04/19 06:25:12;;;;;;;3.10;2.23;;;;;;;7.18;64.03;102327.53;5009590;28;20219;-80
2023/04/19 06:27:38;;;;;;;2.43;1.83;;;;;;;7.24;63.05;102325.97;5007274;28;20199;-79
2023/04/19 06:30:06;;;;;;;5.87;2.07;;;;;;;7.27;63.26;102343.34;5010842;28;20677;-80
2023/04/19 06:32:34;;;;;;;2.30;2.10;;;;;;;7.31;63.13;102350.38;5011693;28;20230;-81
2023/04/19 06:35:02;;;;;;;3.37;2.13;;;;;;;7.33;62.77;102344.41;5006203;28;20232;-83
2023/04/19 06:37:28;;;;;;;4.20;1.90;;;;;;;7.35;63.36;102350.50;5002668;28;20200;-84
2023/04/19 06:39:55;;;;;;;3.13;2.20;;;;;;;7.39;63.21;102359.22;4996602;28;20758;-86
2023/04/19 06:42:22;;;;;;;2.80;2.00;;;;;;;7.40;63.56;102352.34;4996132;28;20262;-81
2023/04/19 06:44:48;;;;;;;2.30;2.10;;;;;;;7.43;62.99;102357.59;4998680;28;20316;-85
2023/04/19 06:47:15;;;;;;;3.00;1.70;;;;;;;7.48;62.22;102371.59;5009532;28;20202;-79
2023/04/19 06:49:42;;;;;;;2.53;1.87;;;;;;;7.51;61.65;102374.25;5002429;28;20210;-82
2023/04/19 06:52:09;;;;;;;3.50;1.73;;;;;;;7.56;61.66;102385.66;5005882;28;20226;-85
2023/04/19 06:54:35;;;;;;;2.73;2.07;;;;;;;7.52;62.05;102386.41;5014469;28;20207;-82
2023/04/19 06:57:02;;;;;;;3.10;2.00;;;;;;;7.63;62.68;102382.38;5001685;28;20206;-83
2023/04/19 06:59:30;;;;;;;2.50;1.90;;;;;;;7.70;62.04;102381.66;4995631;28;20206;-87
2023/04/19 07:01:57;;;;;;;3.27;2.00;;;;;;;7.66;62.51;102384.16;5013628;28;20238;-81
2023/04/19 07:04:24;;;;;;;2.93;1.90;;;;;;;7.74;60.98;102372.22;5011064;28;20311;-85
2023/04/19 07:06:51;;;;;;;2.07;1.90;;;;;;;7.78;61.31;102394.84;5006898;28;20626;-83
2023/04/19 07:09:18;;;;;;;2.60;2.40;;;;;;;7.84;61.67;102389.78;5013450;28;20601;-82
2023/04/19 07:11:44;;;;;;;2.03;1.83;;;;;;;7.88;61.76;102396.81;5016943;28;20235;-83
2023/04/19 07:14:10;;;;;;;2.43;2.00;;;;;;;8.00;60.67;102387.56;5011684;28;20193;-83
2023/04/19 07:16:37;;;;;;;2.93;1.90;;;;;;;8.05;59.53;102405.03;5006102;28;20210;-84
2023/04/19 07:19:03;;;;;;;3.13;2.83;;;;;;;8.05;59.27;102423.25;5005856;28;20225;-82
2023/04/19 07:21:32;;;;;;;6.00;2.17;;;;;;;8.05;59.27;102446.66;5005034;28;20239;-84
2023/04/19 07:24:02;;;;;;;1.87;1.77;;;;;;;8.08;59.41;102454.50;5006540;28;20236;-83
2023/04/19 07:26:28;;;;;;;3.27;1.93;;;;;;;8.08;58.87;102469.25;5007095;28;20230;-84
2023/04/19 07:28:55;;;;;;;3.03;1.90;;;;;;;8.10;58.97;102472.75;5005980;28;20206;-82
2023/04/19 07:31:23;;;;;;;1.83;1.73;;;;;;;8.11;58.72;102477.13;5008532;28;20201;-83
2023/04/19 07:33:54;;;;;;;3.07;2.00;;;;;;;8.14;57.79;102475.47;5012111;28;20295;-81
2023/04/19 07:36:20;;;;;;;1.93;1.77;;;;;;;8.08;58.13;102508.25;5004843;28;20206;-82
2023/04/19 07:38:47;;;;;;;2.00;1.83;;;;;;;8.13;57.76;102493.66;5006342;28;20213;-83
2023/04/19 07:41:14;;;;;;;2.80;2.17;;;;;;;8.12;58.76;102510.97;5006581;28;20226;-81
2023/04/19 07:43:41;;;;;;;3.07;2.30;;;;;;;8.18;59.47;102489.44;5006993;28;20224;-82
2023/04/19 07:46:09;;;;;;;4.13;2.07;;;;;;;8.21;58.79;102484.31;5007159;28;20191;-81
2023/04/19 07:48:36;;;;;;;2.67;1.83;;;;;;;8.24;56.94;102489.56;5007053;28;20201;-81
2023/04/19 07:51:08;;;;;;;2.13;1.93;;;;;;;8.15;56.02;102520.59;5003490;28;20203;-82
2023/04/19 07:53:35;;;;;;;1.93;1.80;;;;;;;8.14;56.07;102553.50;4999142;28;20240;-82
2023/04/19 07:56:03;;;;;;;2.63;2.40;;;;;;;8.21;55.99;102557.16;4998421;28;20233;-82
2023/04/19 07:58:31;;;;;;;2.00;1.87;;;;;;;8.25;56.02;102563.31;4997902;28;20668;-83
2023/04/19 08:00:57;;;;;;;2.27;2.07;;;;;;;8.32;55.94;102571.31;4999471;28;20280;-81
2023/04/19 08:03:24;;;;;;;2.47;2.00;;;;;;;8.39;55.50;102580.16;5016831;28;20221;-82
2023/04/19 08:05:50;;;;;;;2.70;2.10;;;;;;;8.34;55.11;102597.34;5018378;28;20228;-81
2023/04/19 08:08:16;;;;;;;2.93;2.50;;;;;;;8.37;55.41;102617.41;5015557;28;20228;-81
2023/04/19 08:10:43;;;;;;;2.60;2.23;;;;;;;8.41;55.43;102599.31;5015912;28;20613;-81
2023/04/19 08:13:09;;;;;;;2.27;2.07;;;;;;;8.45;55.26;102624.56;5024333;28;20225;-85
2023/04/19 08:15:37;;;;;;;2.63;2.10;;;;;;;8.52;55.35;102608.28;5035495;28;20193;-84
2023/04/19 08:18:04;;;;;;;3.50;2.20;;;;;;;8.62;54.03;102629.31;5039444;28;20203;-81
2023/04/19 08:20:31;;;;;;;2.10;1.90;;;;;;;8.66;54.50;102649.38;5036748;28;20301;-81
2023/04/19 08:22:57;;;;;;;4.63;2.90;;;;;;;8.73;54.41;102638.28;5013361;28;20285;-81
2023/04/19 08:25:31;;;;;;;2.43;2.23;;;;;;;8.90;54.72;102620.41;5002821;28;20223;-84
2023/04/19 08:27:58;;;;;;;2.33;1.83;;;;;;;8.99;53.89;102627.59;4998515;28;20196;-82
2023/04/19 08:30:24;;;;;;;3.10;2.13;;;;;;;8.97;53.67;102637.97;5001170;28;20614;-81
2023/04/19 08:32:52;;;;;;;3.77;3.47;;;;;;;8.98;52.66;102642.34;5015906;28;20229;-81
2023/04/19 08:35:18;;;;;;;2.47;2.20;;;;;;;8.99;52.30;102669.25;5018931;28;20594;-81
2023/04/19 08:37:46;;;;;;;3.03;2.63;;;;;;;9.00;53.85;102699.66;5018754;28;20234;-82
2023/04/19 08:40:15;;;;;;;4.00;2.17;;;;;;;9.02;51.67;102700.56;5018967;28;20214;-83
2023/04/19 08:42:42;;;;;;;2.17;2.07;;;;;;;9.05;51.68;102719.78;5016895;28;20302;-80
2023/04/19 08:45:12;;;;;;;3.97;2.43;;;;;;;9.07;53.54;102743.25;5017640;28;20233;-83
2023/04/19 08:47:39;;;;;;;4.60;2.27;;;;;;;9.17;51.08;102740.03;5020933;28;20205;-82
2023/04/19 08:50:08;;;;;;;2.23;1.97;;;;;;;9.21;51.20;102756.63;5021193;28;20206;-81
2023/04/19 08:52:37;;;;;;;2.33;2.00;;;;;;;9.26;50.45;102765.44;5022299;28;20307;-82
2023/04/19 08:55:05;;;;;;;2.27;2.07;;;;;;;9.28;49.83;102772.44;5020437;28;20205;-81
2023/04/19 08:57:32;;;;;;;2.20;2.00;;;;;;;9.38;50.47;102802.22;5019580;28;20708;-82
2023/04/19 08:59:58;;;;;;;4.80;2.23;;;;;;;9.46;49.01;102787.66;5016509;28;20207;-82
2023/04/19 09:02:25;;;;;;;4.30;2.23;;;;;;;9.57;49.56;102802.66;5020871;28;20222;-81
2023/04/19 09:04:51;;;;;;;2.70;2.50;;;;;;;9.63;47.83;102792.38;5036517;28;20284;-82
2023/04/19 09:07:25;;;;;;;4.70;2.63;;;;;;;9.71;48.94;102840.34;5036381;28;20216;-81
2023/04/19 09:10:06;;;;;;;2.50;2.30;;;;;;;9.80;47.96;102837.97;5035659;28;20235;-80
2023/04/19 09:12:33;;;;;;;1.93;1.73;;;;;;;9.82;47.16;102870.19;5003694;28;20218;-81
2023/04/19 09:15:00;;;;;;;1.80;1.70;;;;;;;9.90;46.22;102889.50;5007075;28;20672;-79
2023/04/19 09:17:27;;;;;;;4.37;2.33;;;;;;;9.94;46.45;102911.34;5005547;28;20202;-80
2023/04/19 09:19:53;;;;;;;2.37;2.17;;;;;;;10.03;46.82;102928.94;5004879;28;20272;-81
2023/04/19 09:22:20;;;;;;;3.20;2.27;;;;;;;10.11;46.83;102932.63;4997649;28;20254;-81
2023/04/19 09:24:48;;;;;;;2.27;1.90;;;;;;;10.20;46.04;102932.81;4999057;28;20231;-81
2023/04/19 09:27:19;;;;;;;2.00;1.90;;;;;;;10.24;45.48;102942.47;4997620;28;20213;-79
2023/04/19 09:29:56;;;;;;;2.80;1.70;;;;;;;10.32;45.40;102959.22;4999699;28;20234;-81
2023/04/19 09:32:22;;;;;;;3.67;2.10;;;;;;;10.40;45.79;102967.22;5018561;28;20253;-81
2023/04/19 09:34:54;;;;;;;4.63;2.00;;;;;;;10.52;45.57;102956.19;5010414;28;20206;-83
2023/04/19 09:37:21;;;;;;;2.37;2.10;;;;;;;10.61;44.51;102960.75;5008711;28;20202;-81
2023/04/19 09:39:49;;;;;;;1.70;1.60;;;;;;;10.68;43.72;102960.91;5005407;28;20265;-80
2023/04/19 09:42:24;;;;;;;2.03;1.80;;;;;;;10.76;44.77;102989.78;5006215;28;20230;-82
2023/04/19 09:44:57;;;;;;;2.07;1.87;;;;;;;10.88;43.37;102991.78;5005225;28;20218;-80
2023/04/19 09:47:24;;;;;;;2.50;2.30;;;;;;;10.95;43.32;103024.16;5000365;28;20213;-80
2023/04/19 09:50:07;;;;;;;1.93;1.80;;;;;;;10.98;42.50;103017.28;4997606;28;20208;-81
2023/04/19 09:52:34;;;;;;;1.60;1.50;;;;;;;11.03;40.80;103036.53;4996541;28;20276;-80
2023/04/19 09:55:04;;;;;;;2.00;1.90;;;;;;;11.07;39.48;103080.19;4997987;28;20215;-83
2023/04/19 09:57:34;;;;;;;3.13;1.87;;;;;;;11.12;39.13;103109.94;4995937;28;20214;-83
2023/04/19 10:00:05;;;;;;;1.73;1.60;;;;;;;11.12;38.04;103151.75;4995450;28;20202;-82
2023/04/19 10:02:32;;;;;;;5.10;1.67;;;;;;;11.13;40.02;103179.66;5010180;28;20222;-84
2023/04/19 10:04:59;;;;;;;2.13;1.93;;;;;;;11.17;38.81;103164.03;5006835;28;20771;-82
2023/04/19 10:07:50;;;;;;;3.40;1.63;;;;;;;11.20;40.19;103204.22;5008878;28;20235;-84
2023/04/19 10:10:21;;;;;;;2.50;1.43;;;;;;;11.27;40.02;103193.03;4997019;28;20678;-80
2023/04/19 10:12:49;;;;;;;3.87;1.77;;;;;;;11.37;40.42;103167.97;5003852;28;20654;-80
2023/04/19 10:15:16;;;;;;;1.80;1.70;;;;;;;11.45;40.39;103161.16;5006683;28;20202;-82
2023/04/19 10:17:42;;;;;;;1.80;1.70;;;;;;;11.53;41.43;103143.03;5005243;28;20229;-81
2023/04/19 10:20:12;;;;;;;2.57;1.93;;;;;;;11.64;41.22;103104.03;5006235;28;20214;-79
2023/04/19 10:22:40;;;;;;;1.60;1.50;;;;;;;11.72;43.25;103116.38;5004412;28;20847;-83
2023/04/19 10:25:14;;;;;;;1.70;1.60;;;;;;;11.85;41.29;103041.63;5006605;28;20219;-80
2023/04/19 10:27:44;;;;;;;2.10;1.90;;;;;;;11.90;40.74;103049.56;5024574;28;20216;-82
2023/04/19 10:30:18;;;;;;;2.27;1.97;;;;;;;11.87;38.85;103039.00;5034250;28;20714;-81
2023/04/19 10:32:46;;;;;;;10.97;1.90;;;;;;;11.86;42.67;103098.31;5017693;28;20717;-82
2023/04/19 10:35:18;;;;;;;4.67;2.00;;;;;;;11.97;43.01;103069.78;4993980;28;20203;-83
2023/04/19 10:38:03;;;;;;;2.20;1.53;;;;;;;12.11;38.80;102996.72;4998894;28;20209;-81
2023/04/19 10:40:56;;;;;;;2.87;1.63;;;;;;;12.09;37.80;103048.13;5003724;28;20290;-79
2023/04/19 10:43:24;;;;;;;1.70;1.60;;;;;;;12.03;36.65;103076.84;5003458;28;20223;-81
2023/04/19 10:45:51;;;;;;;1.70;1.50;;;;;;;12.06;35.92;103116.19;5004827;28;20223;-82
2023/04/19 10:48:38;;;;;;;1.70;1.60;;;;;;;12.08;36.17;103152.00;5005533;28;20274;-81
2023/04/19 10:51:13;;;;;;;2.00;1.60;;;;;;;12.02;35.61;103185.91;5013696;28;20203;-83
2023/04/19 10:53:51;;;;;;;1.90;1.50;;;;;;;12.01;33.84;103192.03;5014167;28;20614;-82
2023/04/19 10:56:19;;;;;;;8.50;1.87;;;;;;;12.08;36.07;103243.63;5002613;28;20670;-82
2023/04/19 10:59:21;;;;;;;2.33;1.47;;;;;;;12.22;34.77;103230.81;5030053;22;20627;-78
2023/04/19 11:01:51;;;;;;;1.97;1.30;;;;;;;12.32;34.15;103230.13;5021329;28;20649;-80
2023/04/19 11:04:19;;;;;;;1.33;1.23;;;;;;;12.35;33.88;103247.66;5012730;28;20632;-79
2023/04/19 11:07:03;;;;;;;1.60;1.50;;;;;;;12.48;33.62;103244.38;5030270;28;20297;-79
2023/04/19 11:09:33;;;;;;;3.13;1.70;;;;;;;12.60;35.89;103277.78;5003246;28;20229;-79
2023/04/19 11:12:01;;;;;;;1.70;1.40;;;;;;;12.74;35.39;103250.97;5002226;28;20227;-77
2023/04/19 11:14:30;;;;;;;2.40;1.60;;;;;;;12.80;33.68;103238.81;5002657;28;20194;-78
2023/04/19 11:16:57;;;;;;;1.47;1.37;;;;;;;12.88;33.18;103252.97;5004463;28;20196;-79
2023/04/19 11:19:23;;;;;;;1.63;1.37;;;;;;;13.01;31.91;103255.78;4999061;28;20269;-78
2023/04/19 11:21:50;;;;;;;1.97;1.87;;;;;;;13.10;33.03;103267.31;4994083;28;20258;-79
2023/04/19 11:24:17;;;;;;;1.83;1.50;;;;;;;13.04;32.07;103276.81;4995441;28;20744;-79
2023/04/19 11:26:44;;;;;;;2.40;1.50;;;;;;;13.15;32.07;103282.25;5007883;28;20253;-81
2023/04/19 11:29:11;;;;;;;1.60;1.50;;;;;;;13.44;32.98;103274.88;5014891;28;20238;-80
2023/04/19 11:31:38;;;;;;;1.60;1.50;;;;;;;13.95;33.54;103271.16;5014693;28;20673;-80
2023/04/19 11:34:05;;;;;;;1.50;1.40;;;;;;;15.34;30.43;103220.78;5000325;28;20207;-79